sensor_id;sensor_type;location;lat;lon;timestamp;P1;durP1;ratioP1;P2;durP2;ratioP2
76336;SDS011;65157;50.082;18.178;2024-02-23T00:00:36;6.40;;;5.80;;
76336;SDS011;65157;50.082;18.178;2024-02-23T00:03:21;5.50;;;5.00;;
76336;SDS011;65157;50.082;18.178;2024-02-23T00:05:47;4.90;;;4.30;;
76336;SDS011;65157;50.082;18.178;2024-02-23T00:08:13;4.70;;;4.30;;
76336;SDS011;65157;50.082;18.178;2024-02-23T00:10:39;5.20;;;4.70;;
76336;SDS011;65157;50.082;18.178;2024-02-23T00:13:05;6.40;;;4.80;;
76336;SDS011;65157;50.082;18.178;2024-02-23T00:15:31;6.30;;;5.70;;
76336;SDS011;65157;50.082;18.178;2024-02-23T00:17:57;4.30;;;3.30;;
76336;SDS011;65157;50.082;18.178;2024-02-23T00:20:23;3.80;;;3.20;;
76336;SDS011;65157;50.082;18.178;2024-02-23T00:22:49;4.20;;;3.70;;
76336;SDS011;65157;50.082;18.178;2024-02-23T00:25:14;3.60;;;3.30;;
76336;SDS011;65157;50.082;18.178;2024-02-23T00:27:40;4.00;;;3.70;;
76336;SDS011;65157;50.082;18.178;2024-02-23T00:30:06;3.90;;;3.60;;
76336;SDS011;65157;50.082;18.178;2024-02-23T00:32:35;3.70;;;3.00;;
76336;SDS011;65157;50.082;18.178;2024-02-23T00:35:01;4.10;;;3.40;;
76336;SDS011;65157;50.082;18.178;2024-02-23T00:37:27;3.30;;;3.00;;
76336;SDS011;65157;50.082;18.178;2024-02-23T00:39:53;3.40;;;3.10;;
76336;SDS011;65157;50.082;18.178;2024-02-23T00:42:19;4.70;;;3.90;;
76336;SDS011;65157;50.082;18.178;2024-02-23T00:44:45;4.00;;;3.60;;
76336;SDS011;65157;50.082;18.178;2024-02-23T00:47:12;3.90;;;3.50;;
76336;SDS011;65157;50.082;18.178;2024-02-23T00:49:37;3.80;;;3.50;;
76336;SDS011;65157;50.082;18.178;2024-02-23T00:52:03;3.60;;;2.70;;
76336;SDS011;65157;50.082;18.178;2024-02-23T00:54:29;4.30;;;3.80;;
76336;SDS011;65157;50.082;18.178;2024-02-23T00:56:55;4.80;;;3.70;;
76336;SDS011;65157;50.082;18.178;2024-02-23T00:59:21;3.90;;;3.50;;
76336;SDS011;65157;50.082;18.178;2024-02-23T01:01:47;2.60;;;2.40;;
76336;SDS011;65157;50.082;18.178;2024-02-23T01:04:13;3.80;;;3.50;;
76336;SDS011;65157;50.082;18.178;2024-02-23T01:06:39;4.40;;;3.90;;
76336;SDS011;65157;50.082;18.178;2024-02-23T01:09:04;3.80;;;3.10;;
76336;SDS011;65157;50.082;18.178;2024-02-23T01:11:30;5.70;;;3.60;;
76336;SDS011;65157;50.082;18.178;2024-02-23T01:13:56;3.50;;;2.80;;
76336;SDS011;65157;50.082;18.178;2024-02-23T01:16:22;3.70;;;3.30;;
76336;SDS011;65157;50.082;18.178;2024-02-23T01:18:48;4.70;;;3.70;;
76336;SDS011;65157;50.082;18.178;2024-02-23T01:21:14;3.00;;;2.70;;
76336;SDS011;65157;50.082;18.178;2024-02-23T01:23:40;2.90;;;2.50;;
76336;SDS011;65157;50.082;18.178;2024-02-23T01:26:06;3.10;;;2.90;;
76336;SDS011;65157;50.082;18.178;2024-02-23T01:28:32;3.00;;;2.70;;
76336;SDS011;65157;50.082;18.178;2024-02-23T01:30:57;3.00;;;2.60;;
76336;SDS011;65157;50.082;18.178;2024-02-23T01:33:23;3.10;;;2.80;;
76336;SDS011;65157;50.082;18.178;2024-02-23T01:35:49;2.00;;;1.90;;
76336;SDS011;65157;50.082;18.178;2024-02-23T01:38:15;2.60;;;2.40;;
76336;SDS011;65157;50.082;18.178;2024-02-23T01:40:41;3.40;;;3.10;;
76336;SDS011;65157;50.082;18.178;2024-02-23T01:43:07;3.70;;;2.90;;
76336;SDS011;65157;50.082;18.178;2024-02-23T01:45:33;3.30;;;3.00;;
76336;SDS011;65157;50.082;18.178;2024-02-23T01:47:59;4.10;;;3.50;;
76336;SDS011;65157;50.082;18.178;2024-02-23T01:50:26;4.60;;;3.30;;
76336;SDS011;65157;50.082;18.178;2024-02-23T01:52:53;3.90;;;3.50;;
76336;SDS011;65157;50.082;18.178;2024-02-23T01:55:20;3.10;;;2.60;;
76336;SDS011;65157;50.082;18.178;2024-02-23T02:00:15;3.90;;;3.60;;
76336;SDS011;65157;50.082;18.178;2024-02-23T02:02:45;2.90;;;2.40;;
76336;SDS011;65157;50.082;18.178;2024-02-23T02:05:13;3.00;;;2.80;;
76336;SDS011;65157;50.082;18.178;2024-02-23T02:07:43;3.90;;;3.50;;
76336;SDS011;65157;50.082;18.178;2024-02-23T02:10:10;4.80;;;3.60;;
76336;SDS011;65157;50.082;18.178;2024-02-23T02:12:38;3.90;;;2.90;;
76336;SDS011;65157;50.082;18.178;2024-02-23T02:15:04;4.80;;;3.00;;
76336;SDS011;65157;50.082;18.178;2024-02-23T02:17:31;2.70;;;2.50;;
76336;SDS011;65157;50.082;18.178;2024-02-23T02:19:58;2.80;;;2.50;;
76336;SDS011;65157;50.082;18.178;2024-02-23T02:22:24;2.20;;;2.10;;
76336;SDS011;65157;50.082;18.178;2024-02-23T02:24:50;3.70;;;3.50;;
76336;SDS011;65157;50.082;18.178;2024-02-23T02:27:16;3.10;;;2.80;;
76336;SDS011;65157;50.082;18.178;2024-02-23T02:29:42;3.60;;;2.60;;
76336;SDS011;65157;50.082;18.178;2024-02-23T02:32:08;4.30;;;4.00;;
76336;SDS011;65157;50.082;18.178;2024-02-23T02:34:33;2.90;;;2.70;;
76336;SDS011;65157;50.082;18.178;2024-02-23T02:37:00;3.20;;;3.00;;
76336;SDS011;65157;50.082;18.178;2024-02-23T02:39:26;3.90;;;2.60;;
76336;SDS011;65157;50.082;18.178;2024-02-23T02:41:53;2.60;;;2.20;;
76336;SDS011;65157;50.082;18.178;2024-02-23T02:44:19;2.40;;;2.20;;
76336;SDS011;65157;50.082;18.178;2024-02-23T02:46:44;2.30;;;2.20;;
76336;SDS011;65157;50.082;18.178;2024-02-23T02:49:11;2.50;;;2.10;;
76336;SDS011;65157;50.082;18.178;2024-02-23T02:51:36;3.30;;;2.40;;
76336;SDS011;65157;50.082;18.178;2024-02-23T02:54:02;1.90;;;1.80;;
76336;SDS011;65157;50.082;18.178;2024-02-23T02:56:28;2.70;;;2.50;;
76336;SDS011;65157;50.082;18.178;2024-02-23T02:58:54;2.60;;;2.40;;
76336;SDS011;65157;50.082;18.178;2024-02-23T03:01:21;1.70;;;1.60;;
76336;SDS011;65157;50.082;18.178;2024-02-23T03:03:46;3.00;;;2.80;;
76336;SDS011;65157;50.082;18.178;2024-02-23T03:06:12;3.50;;;3.20;;
76336;SDS011;65157;50.082;18.178;2024-02-23T03:08:38;1.90;;;1.80;;
76336;SDS011;65157;50.082;18.178;2024-02-23T03:11:08;1.90;;;1.80;;
76336;SDS011;65157;50.082;18.178;2024-02-23T03:13:34;2.10;;;2.00;;
76336;SDS011;65157;50.082;18.178;2024-02-23T03:16:00;2.70;;;2.50;;
76336;SDS011;65157;50.082;18.178;2024-02-23T03:18:26;2.40;;;2.00;;
76336;SDS011;65157;50.082;18.178;2024-02-23T03:20:52;2.60;;;2.50;;
76336;SDS011;65157;50.082;18.178;2024-02-23T03:23:17;2.70;;;2.50;;
76336;SDS011;65157;50.082;18.178;2024-02-23T03:25:43;3.40;;;2.20;;
76336;SDS011;65157;50.082;18.178;2024-02-23T03:28:09;2.90;;;2.30;;
76336;SDS011;65157;50.082;18.178;2024-02-23T03:30:35;2.80;;;2.00;;
76336;SDS011;65157;50.082;18.178;2024-02-23T03:33:02;3.70;;;2.80;;
76336;SDS011;65157;50.082;18.178;2024-02-23T03:35:28;2.30;;;2.10;;
76336;SDS011;65157;50.082;18.178;2024-02-23T03:37:54;2.50;;;2.40;;
76336;SDS011;65157;50.082;18.178;2024-02-23T03:40:20;2.20;;;2.00;;
76336;SDS011;65157;50.082;18.178;2024-02-23T03:42:45;2.70;;;1.90;;
76336;SDS011;65157;50.082;18.178;2024-02-23T03:45:11;2.30;;;2.20;;
76336;SDS011;65157;50.082;18.178;2024-02-23T03:47:38;2.50;;;2.30;;
76336;SDS011;65157;50.082;18.178;2024-02-23T03:50:04;2.40;;;2.30;;
76336;SDS011;65157;50.082;18.178;2024-02-23T03:52:30;1.70;;;1.60;;
76336;SDS011;65157;50.082;18.178;2024-02-23T03:54:56;3.00;;;2.80;;
76336;SDS011;65157;50.082;18.178;2024-02-23T03:57:23;2.10;;;1.90;;
76336;SDS011;65157;50.082;18.178;2024-02-23T03:59:52;2.20;;;2.10;;
76336;SDS011;65157;50.082;18.178;2024-02-23T04:02:19;2.20;;;2.10;;
76336;SDS011;65157;50.082;18.178;2024-02-23T04:04:44;2.40;;;2.20;;
76336;SDS011;65157;50.082;18.178;2024-02-23T04:07:10;3.00;;;2.70;;
76336;SDS011;65157;50.082;18.178;2024-02-23T04:09:36;4.10;;;2.40;;
76336;SDS011;65157;50.082;18.178;2024-02-23T04:12:02;1.80;;;1.70;;
76336;SDS011;65157;50.082;18.178;2024-02-23T04:14:28;2.20;;;2.10;;
76336;SDS011;65157;50.082;18.178;2024-02-23T04:16:54;2.70;;;2.50;;
76336;SDS011;65157;50.082;18.178;2024-02-23T04:19:20;2.60;;;2.10;;
76336;SDS011;65157;50.082;18.178;2024-02-23T04:21:46;2.30;;;2.10;;
76336;SDS011;65157;50.082;18.178;2024-02-23T04:24:12;2.80;;;2.60;;
76336;SDS011;65157;50.082;18.178;2024-02-23T04:26:38;2.00;;;1.70;;
76336;SDS011;65157;50.082;18.178;2024-02-23T04:29:04;2.20;;;1.80;;
76336;SDS011;65157;50.082;18.178;2024-02-23T04:31:30;3.00;;;2.30;;
76336;SDS011;65157;50.082;18.178;2024-02-23T04:33:56;3.60;;;3.30;;
76336;SDS011;65157;50.082;18.178;2024-02-23T04:36:21;2.60;;;2.40;;
76336;SDS011;65157;50.082;18.178;2024-02-23T04:38:47;2.30;;;2.10;;
76336;SDS011;65157;50.082;18.178;2024-02-23T04:41:14;2.20;;;2.00;;
76336;SDS011;65157;50.082;18.178;2024-02-23T04:43:45;2.60;;;2.40;;
76336;SDS011;65157;50.082;18.178;2024-02-23T04:46:11;3.40;;;3.00;;
76336;SDS011;65157;50.082;18.178;2024-02-23T04:48:37;3.50;;;3.30;;
76336;SDS011;65157;50.082;18.178;2024-02-23T04:51:03;2.70;;;2.00;;
76336;SDS011;65157;50.082;18.178;2024-02-23T04:53:29;2.90;;;2.40;;
76336;SDS011;65157;50.082;18.178;2024-02-23T04:55:55;2.40;;;2.20;;
76336;SDS011;65157;50.082;18.178;2024-02-23T04:58:21;2.90;;;2.70;;
76336;SDS011;65157;50.082;18.178;2024-02-23T05:00:49;2.60;;;2.20;;
76336;SDS011;65157;50.082;18.178;2024-02-23T05:03:15;2.00;;;1.90;;
76336;SDS011;65157;50.082;18.178;2024-02-23T05:05:41;3.10;;;2.90;;
76336;SDS011;65157;50.082;18.178;2024-02-23T05:08:07;3.50;;;2.90;;
76336;SDS011;65157;50.082;18.178;2024-02-23T05:10:33;3.20;;;3.00;;
76336;SDS011;65157;50.082;18.178;2024-02-23T05:12:58;5.10;;;4.30;;
76336;SDS011;65157;50.082;18.178;2024-02-23T05:15:24;4.40;;;4.00;;
76336;SDS011;65157;50.082;18.178;2024-02-23T05:17:50;3.40;;;3.10;;
76336;SDS011;65157;50.082;18.178;2024-02-23T05:20:16;3.90;;;3.60;;
76336;SDS011;65157;50.082;18.178;2024-02-23T05:22:42;3.30;;;3.00;;
76336;SDS011;65157;50.082;18.178;2024-02-23T05:25:09;5.00;;;4.50;;
76336;SDS011;65157;50.082;18.178;2024-02-23T05:30:01;3.90;;;3.40;;
76336;SDS011;65157;50.082;18.178;2024-02-23T05:32:27;4.70;;;3.60;;
76336;SDS011;65157;50.082;18.178;2024-02-23T05:34:53;3.90;;;3.50;;
76336;SDS011;65157;50.082;18.178;2024-02-23T05:37:19;5.60;;;5.10;;
76336;SDS011;65157;50.082;18.178;2024-02-23T05:39:46;4.30;;;3.90;;
76336;SDS011;65157;50.082;18.178;2024-02-23T05:42:12;5.90;;;4.80;;
76336;SDS011;65157;50.082;18.178;2024-02-23T05:44:38;3.70;;;3.30;;
76336;SDS011;65157;50.082;18.178;2024-02-23T05:47:04;7.50;;;4.40;;
76336;SDS011;65157;50.082;18.178;2024-02-23T05:49:30;9.70;;;4.90;;
76336;SDS011;65157;50.082;18.178;2024-02-23T05:51:56;8.80;;;4.70;;
76336;SDS011;65157;50.082;18.178;2024-02-23T05:54:22;5.10;;;3.70;;
76336;SDS011;65157;50.082;18.178;2024-02-23T05:56:48;3.30;;;2.70;;
76336;SDS011;65157;50.082;18.178;2024-02-23T05:59:14;4.30;;;3.80;;
76336;SDS011;65157;50.082;18.178;2024-02-23T06:01:40;5.80;;;4.70;;
76336;SDS011;65157;50.082;18.178;2024-02-23T06:04:06;3.40;;;3.10;;
76336;SDS011;65157;50.082;18.178;2024-02-23T06:06:32;4.30;;;3.90;;
76336;SDS011;65157;50.082;18.178;2024-02-23T06:08:58;4.60;;;3.90;;
76336;SDS011;65157;50.082;18.178;2024-02-23T06:11:23;4.40;;;4.00;;
76336;SDS011;65157;50.082;18.178;2024-02-23T06:13:49;4.20;;;3.40;;
76336;SDS011;65157;50.082;18.178;2024-02-23T06:16:15;5.60;;;4.20;;
76336;SDS011;65157;50.082;18.178;2024-02-23T06:18:43;4.30;;;3.60;;
76336;SDS011;65157;50.082;18.178;2024-02-23T06:21:15;4.80;;;3.70;;
76336;SDS011;65157;50.082;18.178;2024-02-23T06:23:42;4.40;;;4.00;;
76336;SDS011;65157;50.082;18.178;2024-02-23T06:26:08;4.30;;;3.90;;
76336;SDS011;65157;50.082;18.178;2024-02-23T06:28:34;3.70;;;3.30;;
76336;SDS011;65157;50.082;18.178;2024-02-23T06:31:00;4.00;;;3.60;;
76336;SDS011;65157;50.082;18.178;2024-02-23T06:33:26;4.50;;;3.70;;
76336;SDS011;65157;50.082;18.178;2024-02-23T06:35:52;5.60;;;4.40;;
76336;SDS011;65157;50.082;18.178;2024-02-23T06:38:18;3.70;;;3.40;;
76336;SDS011;65157;50.082;18.178;2024-02-23T06:40:44;5.50;;;3.90;;
76336;SDS011;65157;50.082;18.178;2024-02-23T06:43:10;4.10;;;3.70;;
76336;SDS011;65157;50.082;18.178;2024-02-23T06:45:36;3.90;;;3.20;;
76336;SDS011;65157;50.082;18.178;2024-02-23T06:48:02;4.60;;;3.40;;
76336;SDS011;65157;50.082;18.178;2024-02-23T06:50:28;4.90;;;4.00;;
76336;SDS011;65157;50.082;18.178;2024-02-23T06:52:54;4.20;;;3.00;;
76336;SDS011;65157;50.082;18.178;2024-02-23T06:55:19;4.80;;;4.40;;
76336;SDS011;65157;50.082;18.178;2024-02-23T06:57:46;4.70;;;4.10;;
76336;SDS011;65157;50.082;18.178;2024-02-23T07:00:12;4.90;;;3.80;;
76336;SDS011;65157;50.082;18.178;2024-02-23T07:02:38;5.80;;;5.20;;
76336;SDS011;65157;50.082;18.178;2024-02-23T07:05:07;5.90;;;4.50;;
76336;SDS011;65157;50.082;18.178;2024-02-23T07:07:34;4.30;;;3.90;;
76336;SDS011;65157;50.082;18.178;2024-02-23T07:10:00;2.90;;;2.70;;
76336;SDS011;65157;50.082;18.178;2024-02-23T07:12:27;3.50;;;3.20;;
76336;SDS011;65157;50.082;18.178;2024-02-23T07:14:53;3.30;;;2.60;;
76336;SDS011;65157;50.082;18.178;2024-02-23T07:17:19;2.80;;;2.50;;
76336;SDS011;65157;50.082;18.178;2024-02-23T07:19:45;3.40;;;2.80;;
76336;SDS011;65157;50.082;18.178;2024-02-23T07:22:11;6.60;;;3.50;;
76336;SDS011;65157;50.082;18.178;2024-02-23T07:24:40;5.40;;;4.10;;
76336;SDS011;65157;50.082;18.178;2024-02-23T07:27:06;4.40;;;3.90;;
76336;SDS011;65157;50.082;18.178;2024-02-23T07:29:32;4.30;;;3.80;;
76336;SDS011;65157;50.082;18.178;2024-02-23T07:31:58;3.60;;;2.60;;
76336;SDS011;65157;50.082;18.178;2024-02-23T07:34:24;3.30;;;3.00;;
76336;SDS011;65157;50.082;18.178;2024-02-23T07:36:53;3.40;;;3.10;;
76336;SDS011;65157;50.082;18.178;2024-02-23T07:39:20;3.00;;;2.70;;
76336;SDS011;65157;50.082;18.178;2024-02-23T07:41:46;4.00;;;3.60;;
76336;SDS011;65157;50.082;18.178;2024-02-23T07:44:12;4.50;;;3.10;;
76336;SDS011;65157;50.082;18.178;2024-02-23T07:46:38;3.80;;;3.50;;
76336;SDS011;65157;50.082;18.178;2024-02-23T07:49:04;4.00;;;3.70;;
76336;SDS011;65157;50.082;18.178;2024-02-23T07:51:31;3.20;;;3.00;;
76336;SDS011;65157;50.082;18.178;2024-02-23T07:53:57;2.70;;;2.50;;
76336;SDS011;65157;50.082;18.178;2024-02-23T07:56:23;2.50;;;2.40;;
76336;SDS011;65157;50.082;18.178;2024-02-23T07:58:49;2.70;;;2.50;;
76336;SDS011;65157;50.082;18.178;2024-02-23T08:01:15;2.40;;;2.30;;
76336;SDS011;65157;50.082;18.178;2024-02-23T08:03:41;4.10;;;2.80;;
76336;SDS011;65157;50.082;18.178;2024-02-23T08:06:07;6.10;;;3.80;;
76336;SDS011;65157;50.082;18.178;2024-02-23T08:08:32;8.00;;;5.00;;
76336;SDS011;65157;50.082;18.178;2024-02-23T08:10:58;6.90;;;4.10;;
76336;SDS011;65157;50.082;18.178;2024-02-23T08:13:24;7.50;;;3.50;;
76336;SDS011;65157;50.082;18.178;2024-02-23T08:15:51;7.80;;;3.60;;
76336;SDS011;65157;50.082;18.178;2024-02-23T08:18:17;5.60;;;3.10;;
76336;SDS011;65157;50.082;18.178;2024-02-23T08:20:43;6.50;;;3.70;;
76336;SDS011;65157;50.082;18.178;2024-02-23T08:23:09;7.70;;;4.20;;
76336;SDS011;65157;50.082;18.178;2024-02-23T08:25:35;9.80;;;5.20;;
76336;SDS011;65157;50.082;18.178;2024-02-23T08:28:02;12.00;;;5.20;;
76336;SDS011;65157;50.082;18.178;2024-02-23T08:30:28;12.60;;;6.40;;
76336;SDS011;65157;50.082;18.178;2024-02-23T08:32:54;7.60;;;5.10;;
76336;SDS011;65157;50.082;18.178;2024-02-23T08:35:20;7.10;;;4.80;;
76336;SDS011;65157;50.082;18.178;2024-02-23T08:37:46;5.70;;;4.20;;
76336;SDS011;65157;50.082;18.178;2024-02-23T08:40:12;5.80;;;4.10;;
76336;SDS011;65157;50.082;18.178;2024-02-23T08:42:38;5.80;;;4.10;;
76336;SDS011;65157;50.082;18.178;2024-02-23T08:45:04;3.60;;;2.70;;
76336;SDS011;65157;50.082;18.178;2024-02-23T08:47:30;4.00;;;3.20;;
76336;SDS011;65157;50.082;18.178;2024-02-23T08:49:56;4.40;;;4.00;;
76336;SDS011;65157;50.082;18.178;2024-02-23T08:52:22;4.10;;;3.70;;
76336;SDS011;65157;50.082;18.178;2024-02-23T08:54:48;4.20;;;3.80;;
76336;SDS011;65157;50.082;18.178;2024-02-23T08:57:13;4.50;;;4.10;;
76336;SDS011;65157;50.082;18.178;2024-02-23T08:59:39;4.90;;;4.50;;
76336;SDS011;65157;50.082;18.178;2024-02-23T09:02:05;4.30;;;3.90;;
76336;SDS011;65157;50.082;18.178;2024-02-23T09:04:32;5.30;;;4.60;;
76336;SDS011;65157;50.082;18.178;2024-02-23T09:06:58;6.30;;;4.50;;
76336;SDS011;65157;50.082;18.178;2024-02-23T09:09:24;4.70;;;4.20;;
76336;SDS011;65157;50.082;18.178;2024-02-23T09:11:50;4.40;;;3.70;;
76336;SDS011;65157;50.082;18.178;2024-02-23T09:14:16;4.40;;;3.40;;
76336;SDS011;65157;50.082;18.178;2024-02-23T09:16:43;5.40;;;4.50;;
76336;SDS011;65157;50.082;18.178;2024-02-23T09:19:10;3.70;;;3.30;;
76336;SDS011;65157;50.082;18.178;2024-02-23T09:21:36;3.00;;;2.70;;
76336;SDS011;65157;50.082;18.178;2024-02-23T09:24:02;2.50;;;2.30;;
76336;SDS011;65157;50.082;18.178;2024-02-23T09:26:28;2.60;;;2.00;;
76336;SDS011;65157;50.082;18.178;2024-02-23T09:28:54;3.10;;;2.90;;
76336;SDS011;65157;50.082;18.178;2024-02-23T09:31:20;3.40;;;3.20;;
76336;SDS011;65157;50.082;18.178;2024-02-23T09:33:46;2.50;;;2.40;;
76336;SDS011;65157;50.082;18.178;2024-02-23T09:36:12;3.90;;;2.80;;
76336;SDS011;65157;50.082;18.178;2024-02-23T09:38:37;2.50;;;2.30;;
76336;SDS011;65157;50.082;18.178;2024-02-23T09:41:04;3.00;;;2.80;;
76336;SDS011;65157;50.082;18.178;2024-02-23T09:43:29;2.30;;;2.20;;
76336;SDS011;65157;50.082;18.178;2024-02-23T09:45:56;1.90;;;1.80;;
76336;SDS011;65157;50.082;18.178;2024-02-23T09:48:25;1.90;;;1.80;;
76336;SDS011;65157;50.082;18.178;2024-02-23T09:50:52;2.30;;;2.10;;
76336;SDS011;65157;50.082;18.178;2024-02-23T09:53:18;2.60;;;2.40;;
76336;SDS011;65157;50.082;18.178;2024-02-23T09:55:45;2.60;;;2.40;;
76336;SDS011;65157;50.082;18.178;2024-02-23T09:58:13;2.70;;;2.50;;
76336;SDS011;65157;50.082;18.178;2024-02-23T10:00:40;2.30;;;2.10;;
76336;SDS011;65157;50.082;18.178;2024-02-23T10:03:07;2.50;;;2.30;;
76336;SDS011;65157;50.082;18.178;2024-02-23T10:05:33;3.50;;;3.30;;
76336;SDS011;65157;50.082;18.178;2024-02-23T10:07:59;4.80;;;4.40;;
76336;SDS011;65157;50.082;18.178;2024-02-23T10:10:34;4.40;;;4.10;;
76336;SDS011;65157;50.082;18.178;2024-02-23T10:13:01;2.00;;;1.90;;
76336;SDS011;65157;50.082;18.178;2024-02-23T10:15:30;2.80;;;2.60;;
76336;SDS011;65157;50.082;18.178;2024-02-23T10:17:56;3.10;;;2.80;;
76336;SDS011;65157;50.082;18.178;2024-02-23T10:20:22;3.70;;;3.40;;
76336;SDS011;65157;50.082;18.178;2024-02-23T10:22:48;3.00;;;2.70;;
76336;SDS011;65157;50.082;18.178;2024-02-23T10:25:15;4.40;;;4.10;;
76336;SDS011;65157;50.082;18.178;2024-02-23T10:27:41;3.80;;;3.50;;
76336;SDS011;65157;50.082;18.178;2024-02-23T10:30:07;3.60;;;3.40;;
76336;SDS011;65157;50.082;18.178;2024-02-23T10:32:34;2.30;;;2.10;;
76336;SDS011;65157;50.082;18.178;2024-02-23T10:35:02;4.10;;;3.80;;
76336;SDS011;65157;50.082;18.178;2024-02-23T10:37:30;1.90;;;1.70;;
76336;SDS011;65157;50.082;18.178;2024-02-23T10:39:57;3.40;;;3.10;;
76336;SDS011;65157;50.082;18.178;2024-02-23T10:42:25;1.80;;;1.70;;
76336;SDS011;65157;50.082;18.178;2024-02-23T10:44:56;3.40;;;3.20;;
76336;SDS011;65157;50.082;18.178;2024-02-23T10:47:23;2.60;;;2.40;;
76336;SDS011;65157;50.082;18.178;2024-02-23T10:49:50;4.00;;;3.70;;
76336;SDS011;65157;50.082;18.178;2024-02-23T10:52:20;5.00;;;3.90;;
76336;SDS011;65157;50.082;18.178;2024-02-23T10:54:50;4.50;;;4.20;;
76336;SDS011;65157;50.082;18.178;2024-02-23T10:57:17;3.90;;;3.20;;
76336;SDS011;65157;50.082;18.178;2024-02-23T10:59:46;3.30;;;3.10;;
76336;SDS011;65157;50.082;18.178;2024-02-23T11:02:13;4.30;;;4.00;;
76336;SDS011;65157;50.082;18.178;2024-02-23T11:04:46;2.70;;;2.50;;
76336;SDS011;65157;50.082;18.178;2024-02-23T11:07:13;2.00;;;1.90;;
76336;SDS011;65157;50.082;18.178;2024-02-23T11:09:39;4.70;;;4.30;;
76336;SDS011;65157;50.082;18.178;2024-02-23T11:12:06;3.50;;;3.30;;
76336;SDS011;65157;50.082;18.178;2024-02-23T11:17:02;3.90;;;3.70;;
76336;SDS011;65157;50.082;18.178;2024-02-23T11:19:32;3.20;;;2.90;;
76336;SDS011;65157;50.082;18.178;2024-02-23T11:22:05;3.30;;;3.10;;
76336;SDS011;65157;50.082;18.178;2024-02-23T11:24:41;2.70;;;2.40;;
76336;SDS011;65157;50.082;18.178;2024-02-23T11:27:13;1.80;;;1.70;;
76336;SDS011;65157;50.082;18.178;2024-02-23T11:29:40;2.70;;;2.20;;
76336;SDS011;65157;50.082;18.178;2024-02-23T11:32:13;2.70;;;2.20;;
76336;SDS011;65157;50.082;18.178;2024-02-23T11:37:11;2.10;;;2.00;;
76336;SDS011;65157;50.082;18.178;2024-02-23T11:39:37;3.60;;;3.30;;
76336;SDS011;65157;50.082;18.178;2024-02-23T11:42:04;2.40;;;2.20;;
76336;SDS011;65157;50.082;18.178;2024-02-23T11:44:31;2.10;;;2.00;;
76336;SDS011;65157;50.082;18.178;2024-02-23T11:46:58;2.00;;;1.90;;
76336;SDS011;65157;50.082;18.178;2024-02-23T11:49:29;2.30;;;2.20;;
76336;SDS011;65157;50.082;18.178;2024-02-23T11:51:55;2.60;;;2.30;;
76336;SDS011;65157;50.082;18.178;2024-02-23T11:54:22;2.10;;;2.00;;
76336;SDS011;65157;50.082;18.178;2024-02-23T11:56:48;1.80;;;1.70;;
76336;SDS011;65157;50.082;18.178;2024-02-23T11:59:15;2.80;;;2.60;;
76336;SDS011;65157;50.082;18.178;2024-02-23T12:01:41;2.40;;;2.20;;
76336;SDS011;65157;50.082;18.178;2024-02-23T12:04:07;2.40;;;2.10;;
76336;SDS011;65157;50.082;18.178;2024-02-23T12:06:33;2.40;;;2.20;;
76336;SDS011;65157;50.082;18.178;2024-02-23T12:09:00;3.40;;;3.00;;
76336;SDS011;65157;50.082;18.178;2024-02-23T12:11:27;3.00;;;2.90;;
76336;SDS011;65157;50.082;18.178;2024-02-23T12:13:53;2.30;;;2.10;;
76336;SDS011;65157;50.082;18.178;2024-02-23T12:16:20;3.40;;;3.20;;
76336;SDS011;65157;50.082;18.178;2024-02-23T12:18:46;3.10;;;2.90;;
76336;SDS011;65157;50.082;18.178;2024-02-23T12:21:18;2.00;;;1.90;;
76336;SDS011;65157;50.082;18.178;2024-02-23T12:23:45;3.40;;;3.20;;
76336;SDS011;65157;50.082;18.178;2024-02-23T12:28:43;1.80;;;1.70;;
76336;SDS011;65157;50.082;18.178;2024-02-23T12:31:09;1.80;;;1.70;;
76336;SDS011;65157;50.082;18.178;2024-02-23T12:33:37;1.90;;;1.60;;
76336;SDS011;65157;50.082;18.178;2024-02-23T12:36:04;3.20;;;3.00;;
76336;SDS011;65157;50.082;18.178;2024-02-23T12:38:30;2.60;;;2.50;;
76336;SDS011;65157;50.082;18.178;2024-02-23T12:40:57;2.30;;;2.20;;
76336;SDS011;65157;50.082;18.178;2024-02-23T12:43:23;3.00;;;2.40;;
76336;SDS011;65157;50.082;18.178;2024-02-23T12:45:49;2.60;;;2.20;;
76336;SDS011;65157;50.082;18.178;2024-02-23T12:48:18;2.70;;;2.50;;
76336;SDS011;65157;50.082;18.178;2024-02-23T12:50:44;3.20;;;3.00;;
76336;SDS011;65157;50.082;18.178;2024-02-23T12:53:11;3.20;;;2.90;;
76336;SDS011;65157;50.082;18.178;2024-02-23T12:55:56;2.70;;;2.50;;
76336;SDS011;65157;50.082;18.178;2024-02-23T12:58:22;2.90;;;2.60;;
76336;SDS011;65157;50.082;18.178;2024-02-23T13:00:48;2.50;;;2.30;;
76336;SDS011;65157;50.082;18.178;2024-02-23T13:03:13;2.90;;;2.70;;
76336;SDS011;65157;50.082;18.178;2024-02-23T13:05:39;2.70;;;2.50;;
76336;SDS011;65157;50.082;18.178;2024-02-23T13:08:05;2.40;;;2.00;;
76336;SDS011;65157;50.082;18.178;2024-02-23T13:10:31;2.80;;;2.50;;
76336;SDS011;65157;50.082;18.178;2024-02-23T13:12:57;2.80;;;2.50;;
76336;SDS011;65157;50.082;18.178;2024-02-23T13:15:23;4.90;;;3.70;;
76336;SDS011;65157;50.082;18.178;2024-02-23T13:17:49;3.80;;;2.80;;
76336;SDS011;65157;50.082;18.178;2024-02-23T13:20:15;4.00;;;2.50;;
76336;SDS011;65157;50.082;18.178;2024-02-23T13:22:41;6.40;;;5.10;;
76336;SDS011;65157;50.082;18.178;2024-02-23T13:25:07;3.90;;;3.30;;
76336;SDS011;65157;50.082;18.178;2024-02-23T13:27:33;4.40;;;3.60;;
76336;SDS011;65157;50.082;18.178;2024-02-23T13:29:59;6.80;;;5.40;;
76336;SDS011;65157;50.082;18.178;2024-02-23T13:32:25;8.90;;;5.90;;
76336;SDS011;65157;50.082;18.178;2024-02-23T13:34:51;6.30;;;4.10;;
76336;SDS011;65157;50.082;18.178;2024-02-23T13:37:16;6.50;;;3.70;;
76336;SDS011;65157;50.082;18.178;2024-02-23T13:39:43;9.10;;;4.40;;
76336;SDS011;65157;50.082;18.178;2024-02-23T13:42:08;7.30;;;4.20;;
76336;SDS011;65157;50.082;18.178;2024-02-23T13:44:35;6.00;;;4.10;;
76336;SDS011;65157;50.082;18.178;2024-02-23T13:47:02;3.20;;;2.70;;
76336;SDS011;65157;50.082;18.178;2024-02-23T13:49:28;2.60;;;2.40;;
76336;SDS011;65157;50.082;18.178;2024-02-23T13:51:54;2.70;;;2.50;;
76336;SDS011;65157;50.082;18.178;2024-02-23T13:54:20;4.30;;;3.70;;
76336;SDS011;65157;50.082;18.178;2024-02-23T13:56:46;4.60;;;4.20;;
76336;SDS011;65157;50.082;18.178;2024-02-23T13:59:12;7.40;;;4.30;;
76336;SDS011;65157;50.082;18.178;2024-02-23T14:01:38;7.60;;;4.70;;
76336;SDS011;65157;50.082;18.178;2024-02-23T14:04:06;8.10;;;4.90;;
76336;SDS011;65157;50.082;18.178;2024-02-23T14:06:32;4.20;;;3.00;;
76336;SDS011;65157;50.082;18.178;2024-02-23T14:08:58;6.20;;;3.90;;
76336;SDS011;65157;50.082;18.178;2024-02-23T14:11:24;4.50;;;3.90;;
76336;SDS011;65157;50.082;18.178;2024-02-23T14:13:51;7.00;;;4.30;;
76336;SDS011;65157;50.082;18.178;2024-02-23T14:16:17;10.30;;;4.60;;
76336;SDS011;65157;50.082;18.178;2024-02-23T14:18:43;9.20;;;5.20;;
76336;SDS011;65157;50.082;18.178;2024-02-23T14:21:09;13.00;;;6.00;;
76336;SDS011;65157;50.082;18.178;2024-02-23T14:23:36;7.10;;;4.80;;
76336;SDS011;65157;50.082;18.178;2024-02-23T14:26:03;6.30;;;4.50;;
76336;SDS011;65157;50.082;18.178;2024-02-23T14:28:30;5.10;;;4.30;;
76336;SDS011;65157;50.082;18.178;2024-02-23T14:30:57;6.00;;;4.70;;
76336;SDS011;65157;50.082;18.178;2024-02-23T14:33:23;6.50;;;4.00;;
76336;SDS011;65157;50.082;18.178;2024-02-23T14:35:49;7.10;;;5.00;;
76336;SDS011;65157;50.082;18.178;2024-02-23T14:38:15;6.50;;;4.20;;
76336;SDS011;65157;50.082;18.178;2024-02-23T14:40:41;4.70;;;3.60;;